createdAt,value
2023-02-16T00:01:58.160Z,59.78
2023-02-16T00:04:30.130Z,59.92
2023-02-16T00:06:57.933Z,60.22
2023-02-16T00:09:25.296Z,59.40
2023-02-16T00:12:12.919Z,58.63
2023-02-16T00:14:40.306Z,60.05
2023-02-16T00:17:10.695Z,57.30
2023-02-16T00:19:39.478Z,60.20
2023-02-16T00:22:07.942Z,58.92
2023-02-16T00:24:35.268Z,58.67
2023-02-16T00:27:02.396Z,58.88
2023-02-16T00:29:37.298Z,58.42
2023-02-16T00:32:05.891Z,56.75
2023-02-16T00:34:35.620Z,59.47
2023-02-16T00:37:08.120Z,56.03
2023-02-16T00:39:35.718Z,58.00
2023-02-16T00:42:06.300Z,57.75
2023-02-16T00:44:44.386Z,56.63
2023-02-16T00:47:38.200Z,57.38
2023-02-16T00:50:16.110Z,57.75
2023-02-16T00:52:43.538Z,58.65
2023-02-16T00:55:13.754Z,57.58
2023-02-16T00:57:48.446Z,59.78
2023-02-16T01:00:21.109Z,56.63
2023-02-16T01:02:49.359Z,56.85
2023-02-16T01:05:16.905Z,59.03
2023-02-16T01:08:02.600Z,57.97
2023-02-16T01:10:48.522Z,56.75
2023-02-16T01:13:15.746Z,55.78
2023-02-16T01:15:43.930Z,54.75
2023-02-16T01:18:18.382Z,57.53
2023-02-16T01:20:46.413Z,56.25
2023-02-16T01:23:13.280Z,56.30
2023-02-16T01:25:40.439Z,55.75
2023-02-16T01:28:24.307Z,55.78
2023-02-16T01:30:52.328Z,54.75
2023-02-16T01:33:19.819Z,54.17
2023-02-16T01:35:47.186Z,53.35
2023-02-16T01:38:20.308Z,55.15
2023-02-16T01:41:22.522Z,53.45
2023-02-16T01:44:20.990Z,55.60
2023-02-16T01:47:13.083Z,54.72
2023-02-16T01:49:39.885Z,53.97
2023-02-16T01:52:19.323Z,53.20
2023-02-16T01:55:05.527Z,53.85
2023-02-16T01:57:38.992Z,53.47
2023-02-16T02:00:28.288Z,55.05
2023-02-16T02:03:22.687Z,53.60
2023-02-16T02:05:50.250Z,52.58
2023-02-16T02:08:16.856Z,54.08
2023-02-16T02:11:27.691Z,55.40
2023-02-16T02:14:19.340Z,57.03
2023-02-16T02:16:55.687Z,57.65
2023-02-16T02:19:22.766Z,57.40
2023-02-16T02:22:29.558Z,55.00
2023-02-16T02:25:05.166Z,57.25
2023-02-16T02:27:40.869Z,55.47
2023-02-16T02:30:07.632Z,54.58
2023-02-16T02:33:02.855Z,56.78
2023-02-16T02:35:57.307Z,55.13
2023-02-16T02:38:57.193Z,51.85
2023-02-16T02:41:59.235Z,54.15
2023-02-16T02:44:28.916Z,52.38
2023-02-16T02:46:55.853Z,52.17
2023-02-16T02:49:23.241Z,52.25
2023-02-16T02:51:51.151Z,52.22
2023-02-16T02:54:42.231Z,50.78
2023-02-16T02:57:35.214Z,51.83
2023-02-16T03:00:43.900Z,49.60
2023-02-16T03:03:14.024Z,48.60
2023-02-16T03:05:46.359Z,51.22
2023-02-16T03:08:17.508Z,51.72
2023-02-16T03:11:32.550Z,50.70
2023-02-16T03:14:04.763Z,50.38
2023-02-16T03:16:37.500Z,49.22
2023-02-16T03:19:25.780Z,51.63
2023-02-16T03:22:12.016Z,51.33
2023-02-16T03:24:57.401Z,49.45
2023-02-16T03:27:50.243Z,50.15
2023-02-16T03:30:19.180Z,49.63
2023-02-16T03:32:46.623Z,50.35
2023-02-16T03:35:14.009Z,49.88
2023-02-16T03:37:41.825Z,51.13
2023-02-16T03:40:30.904Z,49.15
2023-02-16T03:43:00.192Z,50.83
2023-02-16T03:45:28.302Z,49.83
2023-02-16T03:47:55.390Z,50.60
2023-02-16T03:50:22.876Z,51.25
2023-02-16T03:52:49.897Z,49.83
2023-02-16T03:55:16.697Z,49.15
2023-02-16T03:57:43.393Z,48.80
2023-02-16T04:00:10.919Z,49.40
2023-02-16T04:02:37.670Z,49.80
2023-02-16T04:05:04.719Z,49.03
2023-02-16T04:07:31.915Z,48.03
2023-02-16T04:09:58.774Z,47.15
2023-02-16T04:12:37.361Z,48.33
2023-02-16T04:15:11.494Z,46.13
2023-02-16T04:17:38.361Z,47.30
2023-02-16T04:20:06.455Z,48.50
2023-02-16T04:22:33.299Z,49.17
2023-02-16T04:25:00.176Z,46.13
2023-02-16T04:27:27.106Z,49.40
2023-02-16T04:29:53.840Z,47.42
2023-02-16T04:32:20.616Z,47.75
2023-02-16T04:34:47.289Z,45.10
2023-02-16T04:37:14.062Z,46.50
2023-02-16T04:39:40.773Z,48.97
2023-02-16T04:42:07.734Z,47.15
2023-02-16T04:44:34.573Z,45.88
2023-02-16T04:47:01.291Z,46.75
2023-02-16T04:49:28.099Z,44.53
2023-02-16T04:51:54.936Z,47.45
2023-02-16T04:54:21.728Z,45.13
2023-02-16T04:56:49.580Z,46.63
2023-02-16T04:59:16.392Z,44.67
2023-02-16T05:01:43.437Z,45.88
2023-02-16T05:04:10.609Z,45.53
2023-02-16T05:06:38.482Z,46.63
2023-02-16T05:09:06.544Z,45.25
2023-02-16T05:11:51.766Z,45.28
2023-02-16T05:14:42.257Z,46.85
2023-02-16T05:17:11.705Z,45.17
2023-02-16T05:19:39.433Z,46.22
2023-02-16T05:22:06.405Z,46.20
2023-02-16T05:24:34.628Z,44.95
2023-02-16T05:27:04.289Z,45.70
2023-02-16T05:29:31.421Z,47.20
2023-02-16T05:31:58.547Z,46.38
2023-02-16T05:34:26.016Z,47.08
2023-02-16T05:36:53.240Z,47.58
2023-02-16T05:39:20.066Z,46.75
2023-02-16T05:41:46.851Z,47.90
2023-02-16T05:44:13.676Z,47.60
2023-02-16T05:46:41.200Z,48.35
2023-02-16T05:49:08.502Z,49.22
2023-02-16T05:51:36.592Z,48.80
2023-02-16T05:54:04.242Z,49.65
2023-02-16T05:56:31.415Z,47.75
2023-02-16T05:58:59.864Z,50.70
2023-02-16T06:01:27.778Z,47.35
2023-02-16T06:03:54.522Z,49.30
2023-02-16T06:06:21.451Z,47.95
2023-02-16T06:08:48.267Z,47.83
2023-02-16T06:11:33.451Z,49.63
2023-02-16T06:14:00.197Z,48.45
2023-02-16T06:16:28.224Z,48.63
2023-02-16T06:18:55.724Z,48.95
2023-02-16T06:21:22.858Z,49.10
2023-02-16T06:23:49.916Z,48.55
2023-02-16T06:26:17.189Z,46.85
2023-02-16T06:28:44.036Z,50.65
2023-02-16T06:31:11.552Z,49.10
2023-02-16T06:33:38.440Z,49.58
2023-02-16T06:36:05.690Z,49.50
2023-02-16T06:38:32.635Z,50.15
2023-02-16T06:40:59.646Z,48.75
2023-02-16T06:43:26.514Z,47.83
2023-02-16T06:45:53.239Z,49.67
2023-02-16T06:48:19.980Z,51.22
2023-02-16T06:50:46.856Z,49.53
2023-02-16T06:53:13.703Z,50.58
2023-02-16T06:55:40.652Z,49.17
2023-02-16T06:58:07.987Z,47.20
2023-02-16T07:00:35.155Z,50.10
2023-02-16T07:03:02.152Z,50.90
2023-02-16T07:05:29.017Z,51.33
2023-02-16T07:07:55.963Z,52.25
2023-02-16T07:10:22.811Z,49.90
2023-02-16T07:12:49.686Z,49.55
2023-02-16T07:15:16.579Z,51.28
2023-02-16T07:17:43.324Z,49.45
2023-02-16T07:20:12.568Z,49.95
2023-02-16T07:22:39.433Z,48.83
2023-02-16T07:25:06.722Z,50.58
2023-02-16T07:27:33.520Z,51.05
2023-02-16T07:30:00.331Z,51.97
2023-02-16T07:32:29.433Z,50.65
2023-02-16T07:34:56.339Z,50.10
2023-02-16T07:37:23.142Z,50.90
2023-02-16T07:39:49.909Z,50.33
2023-02-16T07:42:16.606Z,52.83
2023-02-16T07:44:43.279Z,51.08
2023-02-16T07:47:10.011Z,51.50
2023-02-16T07:49:36.808Z,52.85
2023-02-16T07:52:03.630Z,51.55
2023-02-16T07:54:32.440Z,51.63
2023-02-16T07:56:59.324Z,52.50
2023-02-16T07:59:26.162Z,51.15
2023-02-16T08:01:53.000Z,50.97
2023-02-16T08:04:19.750Z,53.63
2023-02-16T08:06:48.641Z,52.30
2023-02-16T08:09:15.929Z,53.92
2023-02-16T08:11:42.988Z,52.10
2023-02-16T08:14:09.772Z,52.92
2023-02-16T08:16:36.627Z,52.58
2023-02-16T08:19:04.452Z,54.63
2023-02-16T08:21:33.926Z,54.10
2023-02-16T08:24:03.664Z,55.63
2023-02-16T08:26:39.581Z,54.83
2023-02-16T08:29:10.191Z,55.00
2023-02-16T08:31:38.389Z,55.85
2023-02-16T08:34:08.925Z,55.92
2023-02-16T08:36:38.236Z,58.03
2023-02-16T08:39:07.320Z,58.17
2023-02-16T08:41:36.314Z,59.30
2023-02-16T08:44:04.555Z,58.85
2023-02-16T08:46:32.437Z,57.10
2023-02-16T08:49:00.361Z,58.15
2023-02-16T08:51:30.505Z,57.22
2023-02-16T08:53:59.240Z,57.75
2023-02-16T08:56:26.416Z,58.60
2023-02-16T08:58:53.336Z,56.80
2023-02-16T09:01:20.501Z,56.00
2023-02-16T09:03:48.498Z,57.97
2023-02-16T09:06:17.022Z,55.80
2023-02-16T09:08:44.913Z,57.65
2023-02-16T09:11:13.765Z,56.50
2023-02-16T09:13:41.118Z,57.40
2023-02-16T09:16:20.232Z,58.95
2023-02-16T09:18:47.437Z,58.33
2023-02-16T09:21:16.942Z,58.05
2023-02-16T09:23:49.340Z,57.72
2023-02-16T09:26:21.356Z,55.90
2023-02-16T09:28:48.975Z,60.45
2023-02-16T09:31:20.089Z,59.42
2023-02-16T09:33:46.959Z,59.38
2023-02-16T09:36:13.954Z,57.83
2023-02-16T09:38:41.138Z,60.75
2023-02-16T09:41:41.238Z,60.08
2023-02-16T09:44:39.283Z,59.92
2023-02-16T09:47:19.722Z,59.45
2023-02-16T09:49:49.377Z,59.38
2023-02-16T09:52:40.430Z,60.80
2023-02-16T09:55:14.472Z,59.60
2023-02-16T09:57:58.666Z,57.95
2023-02-16T10:00:34.545Z,59.80
2023-02-16T10:03:06.705Z,58.05
2023-02-16T10:05:47.431Z,58.60
2023-02-16T10:08:30.141Z,60.25
2023-02-16T10:11:33.729Z,58.92
2023-02-16T10:14:30.164Z,56.30
2023-02-16T10:17:31.743Z,57.78
2023-02-16T10:20:06.238Z,58.63
2023-02-16T10:22:47.324Z,57.17
2023-02-16T10:25:24.826Z,57.55
2023-02-16T10:28:15.321Z,58.55
2023-02-16T10:30:54.730Z,57.53
2023-02-16T10:33:56.881Z,54.85
2023-02-16T10:39:36.027Z,53.40
2023-02-16T10:42:11.590Z,55.33
2023-02-16T10:44:43.318Z,55.67
2023-02-16T10:49:50.649Z,53.78
2023-02-16T10:52:18.298Z,54.78
2023-02-16T10:54:45.065Z,56.50
2023-02-16T10:57:24.022Z,57.15
2023-02-16T10:59:50.952Z,58.38
2023-02-16T11:02:24.728Z,57.85
2023-02-16T11:04:54.309Z,56.95
2023-02-16T11:07:30.023Z,56.28
2023-02-16T11:10:00.916Z,57.05
2023-02-16T11:12:38.408Z,55.67
2023-02-16T11:15:19.881Z,46.92
2023-02-16T11:17:49.613Z,50.67
2023-02-16T11:20:32.839Z,50.13
2023-02-16T11:23:29.325Z,49.83
2023-02-16T11:26:00.467Z,48.17
2023-02-16T11:28:48.218Z,48.72
2023-02-16T11:31:33.643Z,48.78
2023-02-16T11:34:08.394Z,46.38
2023-02-16T11:36:39.387Z,46.28
2023-02-16T11:39:15.081Z,46.13
2023-02-16T11:41:58.764Z,45.95
2023-02-16T11:44:39.413Z,46.13
2023-02-16T11:47:09.522Z,40.45
2023-02-16T11:49:36.264Z,37.35
2023-02-16T11:52:30.591Z,37.97
2023-02-16T11:54:59.625Z,39.45
2023-02-16T11:57:34.352Z,38.67
2023-02-16T12:00:09.234Z,39.28
2023-02-16T12:02:51.982Z,38.72
2023-02-16T12:05:31.831Z,35.85
2023-02-16T12:08:16.754Z,35.95
2023-02-16T12:10:57.947Z,37.72
2023-02-16T12:13:33.940Z,35.45
2023-02-16T12:16:31.471Z,37.17
2023-02-16T12:19:22.453Z,35.65
2023-02-16T12:22:20.222Z,34.90
2023-02-16T12:24:47.224Z,34.70
2023-02-16T12:27:21.989Z,34.88
2023-02-16T12:30:03.643Z,34.20
2023-02-16T12:32:34.873Z,30.75
2023-02-16T12:35:38.836Z,29.80
2023-02-16T12:38:36.704Z,29.75
2023-02-16T12:41:23.624Z,29.20
2023-02-16T12:44:07.060Z,30.40
2023-02-16T12:46:42.236Z,26.00
2023-02-16T12:49:21.193Z,27.75
2023-02-16T12:52:04.556Z,28.73
2023-02-16T12:54:52.990Z,26.95
2023-02-16T12:57:26.371Z,27.35
2023-02-16T13:00:05.342Z,29.00
2023-02-16T13:02:35.651Z,26.58
2023-02-16T13:05:08.675Z,28.75
2023-02-16T13:07:47.120Z,27.40
2023-02-16T13:10:24.940Z,27.88
2023-02-16T13:13:06.635Z,29.58
2023-02-16T13:15:42.863Z,29.52
2023-02-16T13:18:28.452Z,30.08
2023-02-16T13:21:03.687Z,29.08
2023-02-16T13:24:02.006Z,30.48
2023-02-16T13:26:34.616Z,30.05
2023-02-16T13:29:22.961Z,29.17
2023-02-16T13:31:57.578Z,28.42
2023-02-16T13:34:42.641Z,30.20
2023-02-16T13:37:21.745Z,29.42
2023-02-16T13:40:08.091Z,29.98
2023-02-16T13:42:53.446Z,29.23
2023-02-16T13:45:24.159Z,29.65
2023-02-16T13:47:53.275Z,28.42
2023-02-16T13:50:23.811Z,28.30
2023-02-16T13:52:56.604Z,28.20
2023-02-16T13:55:32.531Z,28.58
2023-02-16T13:58:05.676Z,29.08
2023-02-16T14:00:36.634Z,27.38
2023-02-16T14:03:13.312Z,29.17
2023-02-16T14:05:43.021Z,27.45
2023-02-16T14:08:15.077Z,27.35
2023-02-16T14:10:55.208Z,26.77
2023-02-16T14:13:33.918Z,27.25
2023-02-16T14:16:08.130Z,26.77
2023-02-16T14:18:36.053Z,27.02
2023-02-16T14:21:06.343Z,26.27
2023-02-16T14:23:34.793Z,25.30
2023-02-16T14:26:07.104Z,26.10
2023-02-16T14:28:36.821Z,26.52
2023-02-16T14:31:14.882Z,24.33
2023-02-16T14:34:07.346Z,25.38
2023-02-16T14:36:34.423Z,24.90
2023-02-16T14:39:01.673Z,26.17
2023-02-16T14:41:33.330Z,26.67
2023-02-16T14:47:00.400Z,25.88
2023-02-16T14:50:20.801Z,26.65
2023-02-16T14:53:06.333Z,25.60
2023-02-16T14:55:54.115Z,25.58
2023-02-16T14:58:45.362Z,25.17
2023-02-16T15:01:16.252Z,26.17
2023-02-16T15:03:50.197Z,25.63
2023-02-16T15:06:28.909Z,26.05
2023-02-16T15:08:59.542Z,26.65
2023-02-16T15:11:31.154Z,26.42
2023-02-16T15:16:32.859Z,25.27
2023-02-16T15:19:07.919Z,25.88
2023-02-16T15:21:34.725Z,26.00
2023-02-16T15:24:01.675Z,27.42
2023-02-16T15:26:35.525Z,28.60
2023-02-16T15:29:18.729Z,26.83
2023-02-16T15:31:45.589Z,28.60
2023-02-16T15:34:26.383Z,28.63
2023-02-16T15:36:53.120Z,29.25
2023-02-16T15:39:48.285Z,28.17
2023-02-16T15:42:23.758Z,29.17
2023-02-16T15:44:50.898Z,29.13
2023-02-16T15:47:27.305Z,30.42
2023-02-16T15:49:55.135Z,29.65
2023-02-16T15:52:34.858Z,30.30
2023-02-16T15:55:05.314Z,28.55
2023-02-16T15:57:36.767Z,29.52
2023-02-16T16:00:15.770Z,29.27
2023-02-16T16:02:47.518Z,30.42
2023-02-16T16:07:53.839Z,29.80
2023-02-16T16:10:24.908Z,29.45
2023-02-16T16:12:55.561Z,30.75
2023-02-16T16:15:26.236Z,30.33
2023-02-16T16:17:55.073Z,30.00
2023-02-16T16:20:28.971Z,30.58
2023-02-16T16:22:58.760Z,30.40
2023-02-16T16:25:45.797Z,31.30
2023-02-16T16:28:34.199Z,31.75
2023-02-16T16:31:22.649Z,33.17
2023-02-16T16:33:55.591Z,32.22
2023-02-16T16:36:47.474Z,32.45
2023-02-16T16:39:17.318Z,31.65
2023-02-16T16:42:07.694Z,32.20
2023-02-16T16:44:54.150Z,34.47
2023-02-16T16:47:35.904Z,31.48
2023-02-16T16:50:13.113Z,30.10
2023-02-16T16:52:44.325Z,31.25
2023-02-16T16:55:21.611Z,30.63
2023-02-16T16:57:50.388Z,30.85
2023-02-16T17:00:18.382Z,32.03
2023-02-16T17:02:45.714Z,30.83
2023-02-16T17:05:12.494Z,37.25
2023-02-16T17:07:39.311Z,31.35
2023-02-16T17:10:07.548Z,34.72
2023-02-16T17:12:34.670Z,32.88
2023-02-16T17:15:03.126Z,34.25
2023-02-16T17:17:31.267Z,34.45
2023-02-16T17:19:57.941Z,33.22
2023-02-16T17:22:24.711Z,32.72
2023-02-16T17:24:51.487Z,33.28
2023-02-16T17:27:19.758Z,33.85
2023-02-16T17:29:46.638Z,34.85
2023-02-16T17:32:13.549Z,30.60
2023-02-16T17:34:40.347Z,31.15
2023-02-16T17:37:10.158Z,30.08
2023-02-16T17:39:36.872Z,33.83
2023-02-16T17:42:03.742Z,30.35
2023-02-16T17:44:30.515Z,30.88
2023-02-16T17:46:57.256Z,30.05
2023-02-16T17:49:24.082Z,30.20
2023-02-16T17:51:50.785Z,29.70
2023-02-16T17:54:17.481Z,26.48
2023-02-16T17:56:45.617Z,24.58
2023-02-16T17:59:15.453Z,20.30
2023-02-16T18:01:45.698Z,18.48
2023-02-16T18:04:12.498Z,15.93
2023-02-16T18:06:39.288Z,17.55
2023-02-16T18:09:06.352Z,16.85
2023-02-16T18:11:33.145Z,17.13
2023-02-16T18:13:59.880Z,16.33
2023-02-16T18:16:28.005Z,15.27
2023-02-16T18:18:57.282Z,16.33
2023-02-16T18:21:24.436Z,14.18
2023-02-16T18:23:51.326Z,14.70
2023-02-16T18:26:18.380Z,14.13
2023-02-16T18:28:45.450Z,15.63
2023-02-16T18:31:13.025Z,13.77
2023-02-16T18:33:40.135Z,12.98
2023-02-16T18:36:07.603Z,13.02
2023-02-16T18:38:34.616Z,13.45
2023-02-16T18:41:01.433Z,11.85
2023-02-16T18:43:28.259Z,12.43
2023-02-16T18:45:54.982Z,11.38
2023-02-16T18:48:21.878Z,12.30
2023-02-16T18:50:49.273Z,12.98
2023-02-16T18:53:16.048Z,12.60
2023-02-16T18:55:43.112Z,11.73
2023-02-16T18:58:13.984Z,11.70
2023-02-16T19:00:40.826Z,11.77
2023-02-16T19:03:08.027Z,10.75
2023-02-16T19:05:34.778Z,11.27
2023-02-16T19:08:01.782Z,10.52
2023-02-16T19:10:28.542Z,10.45
2023-02-16T19:12:55.430Z,11.13
2023-02-16T19:15:22.289Z,11.00
2023-02-16T19:17:49.155Z,12.13
2023-02-16T19:20:18.440Z,11.70
2023-02-16T19:22:46.584Z,11.95
2023-02-16T19:25:14.053Z,13.55
2023-02-16T19:27:41.466Z,14.18
2023-02-16T19:30:08.695Z,15.02
2023-02-16T19:32:35.632Z,14.45
2023-02-16T19:35:03.616Z,15.45
2023-02-16T19:37:30.411Z,13.15
2023-02-16T19:39:57.119Z,13.65
2023-02-16T19:42:23.815Z,13.18
2023-02-16T19:44:50.843Z,14.10
2023-02-16T19:47:17.587Z,12.70
2023-02-16T19:49:44.366Z,11.45
2023-02-16T19:52:11.367Z,14.57
2023-02-16T19:54:38.148Z,13.95
2023-02-16T19:57:04.976Z,15.40
2023-02-16T19:59:32.602Z,15.68
2023-02-16T20:01:59.550Z,16.00
2023-02-16T20:04:26.323Z,15.13
2023-02-16T20:06:54.600Z,15.48
2023-02-16T20:09:22.628Z,15.65
2023-02-16T20:11:50.247Z,15.32
2023-02-16T20:14:16.957Z,14.63
2023-02-16T20:16:43.793Z,15.50
2023-02-16T20:19:10.798Z,15.35
2023-02-16T20:21:37.781Z,15.10
2023-02-16T20:24:05.799Z,15.02
2023-02-16T20:26:35.389Z,15.27
2023-02-16T20:29:03.127Z,14.32
2023-02-16T20:31:31.270Z,14.88
2023-02-16T20:33:58.390Z,14.25
2023-02-16T20:36:25.166Z,16.35
2023-02-16T20:38:51.965Z,14.65
2023-02-16T20:41:19.918Z,15.27
2023-02-16T20:43:47.110Z,14.85
2023-02-16T20:46:15.342Z,15.15
2023-02-16T20:48:42.243Z,15.32
2023-02-16T20:51:11.527Z,16.10
2023-02-16T20:53:39.376Z,15.52
2023-02-16T20:56:08.034Z,16.38
2023-02-16T20:58:36.518Z,16.90
2023-02-16T21:01:10.276Z,16.98
2023-02-16T21:03:37.104Z,16.45
2023-02-16T21:06:04.323Z,16.27
2023-02-16T21:08:31.234Z,16.58
2023-02-16T21:10:58.028Z,16.65
2023-02-16T21:13:24.722Z,16.33
2023-02-16T21:15:52.089Z,16.92
2023-02-16T21:18:18.998Z,16.83
2023-02-16T21:20:45.820Z,16.85
2023-02-16T21:23:12.815Z,16.05
2023-02-16T21:25:40.373Z,13.98
2023-02-16T21:28:07.083Z,13.82
2023-02-16T21:30:33.925Z,13.23
2023-02-16T21:33:00.691Z,13.50
2023-02-16T21:35:27.533Z,12.15
2023-02-16T21:37:54.280Z,10.30
2023-02-16T21:40:39.722Z,11.95
2023-02-16T21:43:06.443Z,12.25
2023-02-16T21:45:33.327Z,12.43
2023-02-16T21:48:18.834Z,14.20
2023-02-16T21:50:45.528Z,13.23
2023-02-16T21:53:12.327Z,14.40
2023-02-16T21:55:58.389Z,14.13
2023-02-16T21:58:30.209Z,13.38
2023-02-16T22:00:57.077Z,13.32
2023-02-16T22:03:23.845Z,12.13
2023-02-16T22:05:50.530Z,13.32
2023-02-16T22:08:17.928Z,13.48
2023-02-16T22:10:44.806Z,12.60
2023-02-16T22:13:11.657Z,12.95
2023-02-16T22:15:38.906Z,12.63
2023-02-16T22:18:06.551Z,12.77
2023-02-16T22:20:33.351Z,13.20
2023-02-16T22:23:00.143Z,13.73
2023-02-16T22:25:26.950Z,14.82
2023-02-16T22:27:53.786Z,14.35
2023-02-16T22:30:20.722Z,15.38
2023-02-16T22:32:49.976Z,15.55
2023-02-16T22:35:16.997Z,14.98
2023-02-16T22:37:43.705Z,15.65
2023-02-16T22:40:10.597Z,15.45
2023-02-16T22:42:37.388Z,16.58
2023-02-16T22:45:04.517Z,15.85
2023-02-16T22:47:31.354Z,17.80
2023-02-16T22:49:58.144Z,17.55
2023-02-16T22:52:25.036Z,17.13
2023-02-16T22:54:51.874Z,18.70
2023-02-16T22:57:19.021Z,18.27
2023-02-16T22:59:45.958Z,18.67
2023-02-16T23:02:12.681Z,18.23
2023-02-16T23:04:41.190Z,17.33
2023-02-16T23:07:09.182Z,18.92
2023-02-16T23:09:35.977Z,16.60
2023-02-16T23:12:03.513Z,18.48
2023-02-16T23:14:30.318Z,17.33
2023-02-16T23:16:57.129Z,18.40
2023-02-16T23:19:26.795Z,16.88
2023-02-16T23:21:54.550Z,17.92
2023-02-16T23:24:23.034Z,18.13
2023-02-16T23:26:50.112Z,19.50
2023-02-16T23:29:17.220Z,18.63
2023-02-16T23:31:46.729Z,16.90
2023-02-16T23:34:14.350Z,17.67
2023-02-16T23:36:41.558Z,17.70
2023-02-16T23:39:14.008Z,19.05
2023-02-16T23:41:41.883Z,17.92
2023-02-16T23:44:10.082Z,19.77
2023-02-16T23:46:36.809Z,18.20
2023-02-16T23:49:03.678Z,18.98
2023-02-16T23:51:30.491Z,19.02
2023-02-16T23:53:57.215Z,18.00
2023-02-16T23:56:27.280Z,19.35
2023-02-16T23:58:58.856Z,16.33
